Time;durP1;ratioP1;P1;durP2;ratioP2;P2;SDS_P1;SDS_P2;PMS_P1;PMS_P2;Temp;Humidity;BMP_temperature;BMP_pressure;BME280_temperature;BME280_humidity;BME280_pressure;Samples;Min_cycle;Max_cycle;Signal;HPM_P1;HPM_P2
2023/07/18 00:00:43;;;;;;;0.30;0.30;;;;;;;23.21;56.09;96041.25;4358091;32;20197;-62
2023/07/18 00:03:09;;;;;;;1.47;1.30;;;;;;;23.24;57.96;96034.34;4335083;32;20184;-62
2023/07/18 00:05:39;;;;;;;1.70;1.60;;;;;;;23.17;54.65;96035.00;4337140;32;20198;-63
2023/07/18 00:08:05;;;;;;;1.13;1.03;;;;;;;23.15;53.79;96045.37;4343749;32;20185;-62
2023/07/18 00:10:30;;;;;;;0.97;0.97;;;;;;;23.14;56.61;96035.69;4353156;32;20339;-62
2023/07/18 00:12:56;;;;;;;0.90;0.90;;;;;;;23.16;56.50;96032.63;4351118;32;20180;-63
2023/07/18 00:15:22;;;;;;;0.77;0.77;;;;;;;23.12;55.59;96032.56;4346632;32;20227;-63
2023/07/18 00:17:47;;;;;;;1.53;1.33;;;;;;;23.03;53.62;96028.50;4341423;32;20251;-62
2023/07/18 00:20:14;;;;;;;0.40;0.40;;;;;;;23.07;53.02;96024.72;4354715;32;20243;-62
2023/07/18 00:22:48;;;;;;;0.70;0.70;;;;;;;23.05;52.18;96034.34;4355107;32;20234;-62
2023/07/18 00:25:16;;;;;;;0.77;0.77;;;;;;;23.10;53.50;96034.84;4350859;32;20197;-62
2023/07/18 00:27:42;;;;;;;1.53;1.43;;;;;;;23.08;53.21;96039.03;4338207;32;20245;-62
2023/07/18 00:30:12;;;;;;;1.17;1.00;;;;;;;23.12;53.52;96035.28;4358697;32;20248;-62
2023/07/18 00:32:38;;;;;;;0.93;0.90;;;;;;;23.15;54.29;96031.06;4347360;32;20189;-62
2023/07/18 00:35:04;;;;;;;0.87;0.80;;;;;;;23.13;53.78;96039.53;4341315;32;20195;-62
2023/07/18 00:37:31;;;;;;;0.53;0.53;;;;;;;23.09;52.10;96040.59;4355139;32;20221;-63
2023/07/18 00:39:56;;;;;;;1.23;1.10;;;;;;;23.15;57.71;96028.34;4343241;32;20220;-62
2023/07/18 00:42:21;;;;;;;0.93;0.93;;;;;;;23.16;56.61;96044.25;4335851;32;20204;-63
2023/07/18 00:44:49;;;;;;;0.60;0.60;;;;;;;23.12;52.32;96037.97;4346715;32;20200;-62
2023/07/18 00:47:15;;;;;;;0.97;0.70;;;;;;;23.12;50.37;96037.19;4338937;32;20200;-62
2023/07/18 00:49:40;;;;;;;0.50;0.50;;;;;;;23.14;52.84;96041.12;4339735;32;20181;-63
2023/07/18 00:52:06;;;;;;;0.60;0.60;;;;;;;23.16;52.89;96036.13;4350372;32;20199;-62
2023/07/18 00:54:33;;;;;;;1.70;1.20;;;;;;;23.17;53.04;96035.00;4340109;32;20205;-63
2023/07/18 00:56:59;;;;;;;0.97;0.97;;;;;;;23.17;51.15;96035.00;4342842;32;20353;-62
2023/07/18 00:59:27;;;;;;;1.07;0.87;;;;;;;23.09;50.47;96032.47;4340369;32;20194;-63
2023/07/18 01:01:53;;;;;;;1.27;1.27;;;;;;;23.10;52.25;96034.84;4342722;32;20181;-63
2023/07/18 01:04:19;;;;;;;0.63;0.63;;;;;;;23.09;51.74;96027.84;4343177;32;20264;-62
2023/07/18 01:06:46;;;;;;;0.37;0.37;;;;;;;23.10;52.89;96021.28;4348300;32;20186;-63
2023/07/18 01:09:11;;;;;;;0.53;0.53;;;;;;;23.10;50.31;96018.59;4352248;32;20189;-63
2023/07/18 01:11:36;;;;;;;0.60;0.60;;;;;;;23.06;50.15;96016.97;4356390;32;20199;-62
2023/07/18 01:14:03;;;;;;;0.40;0.40;;;;;;;23.16;51.74;96013.69;4340844;32;20294;-63
2023/07/18 01:16:28;;;;;;;1.10;1.07;;;;;;;23.14;51.24;96005.13;4336413;32;20232;-62
2023/07/18 01:18:54;;;;;;;0.60;0.60;;;;;;;23.10;50.29;95999.63;4342672;32;20199;-62
2023/07/18 01:21:21;;;;;;;0.50;0.50;;;;;;;23.12;53.60;96002.78;4348641;32;20236;-62
2023/07/18 01:23:46;;;;;;;0.83;0.83;;;;;;;23.14;56.10;96000.50;4352962;32;20208;-63
2023/07/18 01:26:12;;;;;;;1.07;0.97;;;;;;;23.14;56.80;96008.63;4337309;32;20209;-62
2023/07/18 01:28:38;;;;;;;0.57;0.57;;;;;;;23.03;51.49;95996.81;4351166;32;20189;-62
2023/07/18 01:31:05;;;;;;;1.20;0.87;;;;;;;23.08;49.45;95991.09;4336336;32;20200;-62
2023/07/18 01:33:30;;;;;;;0.60;0.60;;;;;;;23.03;48.80;95979.78;4341646;32;20299;-63
2023/07/18 01:35:56;;;;;;;0.80;0.77;;;;;;;23.05;53.39;95988.34;4344283;32;20198;-62
2023/07/18 01:38:21;;;;;;;1.53;0.93;;;;;;;23.03;53.83;95990.63;4350718;32;20204;-62
2023/07/18 01:40:46;;;;;;;0.60;0.53;;;;;;;23.00;53.56;95980.50;4339311;32;20230;-62
2023/07/18 01:43:12;;;;;;;0.40;0.40;;;;;;;23.00;53.74;95978.56;4342875;32;20194;-62
2023/07/18 01:45:38;;;;;;;0.80;0.80;;;;;;;22.99;52.56;95985.13;4357937;32;20199;-62
2023/07/18 01:48:04;;;;;;;0.53;0.53;;;;;;;22.94;52.28;95988.91;4349972;32;20207;-62
2023/07/18 01:50:29;;;;;;;1.90;1.13;;;;;;;22.88;50.75;95979.47;4350048;32;20194;-63
2023/07/18 01:52:54;;;;;;;1.53;1.43;;;;;;;22.90;53.54;95981.84;4344141;32;20235;-62
2023/07/18 01:55:20;;;;;;;0.60;0.60;;;;;;;22.89;54.47;95985.69;4349583;32;20194;-63
2023/07/18 01:57:47;;;;;;;0.43;0.43;;;;;;;22.90;53.66;95987.25;4335152;32;20253;-63
2023/07/18 02:00:18;;;;;;;0.60;0.60;;;;;;;22.82;51.60;95990.97;4337292;32;20276;-62
2023/07/18 02:02:48;;;;;;;0.93;0.93;;;;;;;22.78;51.56;95990.09;4340044;32;20193;-62
2023/07/18 02:05:14;;;;;;;0.60;0.60;;;;;;;22.77;53.31;95988.50;4346186;32;20181;-62
2023/07/18 02:07:39;;;;;;;0.97;0.57;;;;;;;22.76;53.97;95976.09;4335907;32;20252;-62
2023/07/18 02:10:05;;;;;;;0.97;0.97;;;;;;;22.75;54.88;95969.13;4348284;32;20229;-62
2023/07/18 02:12:30;;;;;;;0.60;0.60;;;;;;;22.74;53.89;95970.28;4358416;32;20271;-62
2023/07/18 02:14:55;;;;;;;1.43;0.97;;;;;;;22.69;53.65;95978.66;4351196;32;20246;-63
2023/07/18 02:17:21;;;;;;;0.77;0.73;;;;;;;22.66;53.29;95976.66;4345738;32;20250;-62
2023/07/18 02:19:46;;;;;;;0.83;0.70;;;;;;;22.66;54.06;95987.47;4350434;32;20204;-62
2023/07/18 02:22:12;;;;;;;1.03;0.73;;;;;;;22.61;53.60;95986.63;4339352;32;20208;-63
2023/07/18 02:24:37;;;;;;;0.83;0.73;;;;;;;22.61;53.88;95980.44;4357969;32;20223;-63
2023/07/18 02:27:04;;;;;;;0.73;0.73;;;;;;;22.61;54.78;95981.22;4334898;32;20233;-62
2023/07/18 02:29:30;;;;;;;0.80;0.80;;;;;;;22.57;54.30;95985.00;4344316;32;20323;-63
2023/07/18 02:31:55;;;;;;;2.53;1.43;;;;;;;22.67;54.70;95980.94;4346699;32;20201;-62
2023/07/18 02:34:22;;;;;;;0.70;0.70;;;;;;;22.71;55.22;95973.69;4332782;32;20200;-62
2023/07/18 02:36:48;;;;;;;0.83;0.83;;;;;;;22.71;55.17;95973.69;4347803;32;20189;-63
2023/07/18 02:39:16;;;;;;;1.27;1.27;;;;;;;22.68;54.12;95968.97;4343336;32;20232;-63
2023/07/18 02:41:41;;;;;;;0.50;0.50;;;;;;;22.73;56.30;95966.00;4351160;32;20189;-63
2023/07/18 02:44:07;;;;;;;0.97;0.97;;;;;;;22.75;57.32;95969.91;4357639;32;20193;-62
2023/07/18 02:46:32;;;;;;;0.60;0.60;;;;;;;22.71;55.58;95973.69;4348284;32;20189;-62
2023/07/18 02:48:58;;;;;;;0.80;0.80;;;;;;;22.65;53.88;95970.50;4343538;32;20304;-62
2023/07/18 02:51:23;;;;;;;0.60;0.60;;;;;;;22.61;53.71;95964.22;4347966;32;20197;-62
2023/07/18 02:53:51;;;;;;;0.67;0.67;;;;;;;22.58;54.77;95964.91;4336892;32;20228;-62
2023/07/18 02:56:17;;;;;;;0.73;0.50;;;;;;;22.51;53.44;95959.34;4338308;32;20193;-63
2023/07/18 02:58:43;;;;;;;0.33;0.33;;;;;;;22.67;57.02;95956.59;4352410;32;20242;-62
2023/07/18 03:01:08;;;;;;;2.97;1.27;;;;;;;22.67;56.16;95957.38;4351694;32;20193;-63
2023/07/18 03:03:34;;;;;;;1.17;1.17;;;;;;;22.60;54.48;95963.44;4349973;32;20220;-62
2023/07/18 03:06:00;;;;;;;0.77;0.77;;;;;;;22.66;56.18;95972.03;4349815;32;20245;-63
2023/07/18 03:08:26;;;;;;;0.60;0.60;;;;;;;22.63;56.53;95975.47;4344670;32;20201;-62
2023/07/18 03:10:51;;;;;;;0.80;0.80;;;;;;;22.57;54.68;95969.53;4351651;32;20193;-63
2023/07/18 03:13:17;;;;;;;0.60;0.60;;;;;;;22.60;55.54;95973.47;4342606;32;20239;-62
2023/07/18 03:15:43;;;;;;;0.70;0.70;;;;;;;22.61;56.96;95975.03;4351057;32;20200;-62
2023/07/18 03:18:08;;;;;;;1.03;0.93;;;;;;;22.59;57.00;95975.38;4357475;32;20267;-63
2023/07/18 03:20:34;;;;;;;0.47;0.47;;;;;;;22.59;56.30;95982.72;4351939;32;20189;-62
2023/07/18 03:22:59;;;;;;;0.50;0.50;;;;;;;22.56;55.84;95981.50;4351441;32;20206;-62
2023/07/18 03:25:25;;;;;;;0.77;0.77;;;;;;;22.55;55.68;95977.22;4358251;32;20188;-62
2023/07/18 03:27:52;;;;;;;1.33;1.33;;;;;;;22.57;57.02;95972.25;4344778;32;20192;-62
2023/07/18 03:30:17;;;;;;;1.27;1.27;;;;;;;22.50;56.63;95969.37;4344265;32;20198;-62
2023/07/18 03:32:43;;;;;;;0.97;0.97;;;;;;;22.41;56.04;95968.81;4357605;32;20200;-62
2023/07/18 03:35:11;;;;;;;0.37;0.37;;;;;;;22.41;57.66;95966.12;4355979;32;20212;-62
2023/07/18 03:37:37;;;;;;;1.23;1.17;;;;;;;22.48;57.98;95977.06;4341826;32;20192;-63
2023/07/18 03:40:06;;;;;;;1.13;1.13;;;;;;;22.51;57.74;95979.06;4355260;32;20253;-62
2023/07/18 03:42:33;;;;;;;0.80;0.80;;;;;;;22.52;58.07;95982.56;4351169;32;20216;-63
2023/07/18 03:44:58;;;;;;;0.90;0.90;;;;;;;22.49;58.26;95984.03;4354595;32;20193;-62
2023/07/18 03:47:23;;;;;;;1.00;1.00;;;;;;;22.49;59.06;95975.94;4332276;32;20199;-62
2023/07/18 03:49:50;;;;;;;1.50;1.50;;;;;;;22.51;59.88;95984.47;4346330;32;20201;-63
2023/07/18 03:52:15;;;;;;;1.00;1.00;;;;;;;22.51;60.44;95981.00;4357739;32;20189;-62
2023/07/18 03:54:40;;;;;;;1.03;1.03;;;;;;;22.50;60.84;95976.72;4352768;32;20248;-62
2023/07/18 03:57:06;;;;;;;0.70;0.70;;;;;;;22.46;61.61;95973.94;4342792;32;20194;-62
2023/07/18 03:59:31;;;;;;;2.00;1.07;;;;;;;22.44;62.07;95978.94;4353926;32;20204;-63
2023/07/18 04:01:56;;;;;;;0.97;0.97;;;;;;;22.45;62.67;95972.34;4339124;32;20185;-63
2023/07/18 04:04:22;;;;;;;1.10;1.10;;;;;;;22.44;62.95;95976.22;4357939;32;20189;-63
2023/07/18 04:06:47;;;;;;;0.90;0.90;;;;;;;22.43;63.27;95969.25;4341308;32;20231;-62
2023/07/18 04:09:13;;;;;;;0.60;0.60;;;;;;;22.40;63.65;95972.66;4351064;32;20203;-62
2023/07/18 04:11:39;;;;;;;0.77;0.77;;;;;;;22.36;64.60;95968.28;4343745;32;20194;-62
2023/07/18 04:14:04;;;;;;;2.43;2.27;;;;;;;22.36;64.52;95958.25;4335254;32;20223;-63
2023/07/18 04:16:30;;;;;;;0.83;0.83;;;;;;;22.29;65.25;95960.81;4352886;32;20193;-63
2023/07/18 04:18:55;;;;;;;1.23;0.90;;;;;;;22.26;65.87;95965.00;4342189;32;20185;-63
2023/07/18 04:21:21;;;;;;;1.10;1.10;;;;;;;22.26;65.70;95959.59;4347620;32;20251;-62
2023/07/18 04:23:47;;;;;;;2.50;1.17;;;;;;;22.28;65.40;95957.31;4356795;32;20207;-63
2023/07/18 04:26:12;;;;;;;0.70;0.70;;;;;;;22.28;65.65;95954.59;4347318;32;20193;-62
2023/07/18 04:28:38;;;;;;;1.37;1.33;;;;;;;22.31;65.82;95955.03;4341792;32;20240;-62
2023/07/18 04:31:03;;;;;;;1.77;1.67;;;;;;;22.32;65.79;95951.22;4343432;32;20213;-62
2023/07/18 04:33:33;;;;;;;0.70;0.70;;;;;;;22.26;65.81;95950.69;4351135;32;20254;-62
2023/07/18 04:35:59;;;;;;;7.40;2.60;;;;;;;22.28;66.04;95943.78;4348101;32;20335;-62
2023/07/18 04:38:24;;;;;;;0.80;0.80;;;;;;;22.29;65.85;95948.06;4332454;32;20213;-62
2023/07/18 04:40:50;;;;;;;3.77;1.33;;;;;;;22.34;65.68;95941.59;4348518;32;20254;-63
2023/07/18 04:43:16;;;;;;;2.93;1.07;;;;;;;22.35;65.73;95943.19;4345894;32;20216;-62
2023/07/18 04:45:46;;;;;;;4.10;2.07;;;;;;;22.38;65.51;95933.59;4351131;32;20185;-61
2023/07/18 04:48:12;;;;;;;4.47;1.60;;;;;;;22.34;65.50;95932.72;4352906;32;20213;-60
2023/07/18 04:50:38;;;;;;;0.93;0.87;;;;;;;22.36;65.40;95936.63;4353454;32;20215;-63
2023/07/18 04:53:03;;;;;;;1.40;1.30;;;;;;;22.34;65.46;95921.91;4336412;32;20198;-63
2023/07/18 04:55:29;;;;;;;0.83;0.83;;;;;;;22.34;65.52;95925.38;4347570;32;20248;-63
2023/07/18 04:57:54;;;;;;;1.10;1.10;;;;;;;22.36;65.51;95919.62;4352176;32;20189;-63
2023/07/18 05:00:19;;;;;;;1.30;1.20;;;;;;;22.31;65.03;95919.91;4339145;32;20201;-62
2023/07/18 05:02:45;;;;;;;0.97;0.97;;;;;;;22.33;65.26;95918.41;4347629;32;20193;-62
2023/07/18 05:05:10;;;;;;;1.20;1.20;;;;;;;22.22;66.13;95917.41;4345063;32;20235;-62
2023/07/18 05:07:36;;;;;;;1.67;1.57;;;;;;;22.30;64.82;95924.53;4355015;32;20189;-63
2023/07/18 05:10:01;;;;;;;0.83;0.83;;;;;;;22.29;61.76;95921.03;4339128;32;20287;-62
2023/07/18 05:12:26;;;;;;;0.93;0.93;;;;;;;22.31;63.35;95928.00;4345258;32;20247;-62
2023/07/18 05:14:51;;;;;;;1.00;1.00;;;;;;;22.22;62.19;95926.31;4339338;32;20205;-62
2023/07/18 05:17:17;;;;;;;1.03;0.97;;;;;;;22.31;62.42;95934.19;4355418;32;20185;-63
2023/07/18 05:19:42;;;;;;;0.80;0.80;;;;;;;22.33;63.37;95934.62;4345644;32;20197;-63
2023/07/18 05:22:07;;;;;;;0.83;0.83;;;;;;;22.33;61.45;95937.34;4349968;32;20208;-62
2023/07/18 05:24:33;;;;;;;1.90;1.80;;;;;;;22.28;63.01;95934.91;4341408;32;20207;-63
2023/07/18 05:26:59;;;;;;;0.50;0.50;;;;;;;22.32;63.50;95940.38;4335335;32;20290;-63
2023/07/18 05:29:24;;;;;;;1.60;1.50;;;;;;;22.40;63.45;95937.50;4357531;32;20197;-63
2023/07/18 05:31:50;;;;;;;1.90;1.80;;;;;;;22.43;62.40;95920.56;4346526;32;20248;-63
2023/07/18 05:34:15;;;;;;;0.90;0.90;;;;;;;22.40;62.52;95918.56;4346192;32;20227;-62
2023/07/18 05:36:40;;;;;;;0.90;0.90;;;;;;;22.40;63.04;95915.87;4347986;32;20309;-62
2023/07/18 05:39:06;;;;;;;1.43;1.43;;;;;;;22.48;61.74;95922.97;4341402;32;20261;-62
2023/07/18 05:41:31;;;;;;;0.83;0.83;;;;;;;22.44;59.76;95922.13;4354183;32;20289;-62
2023/07/18 05:43:56;;;;;;;0.80;0.80;;;;;;;22.47;61.18;95915.22;4345590;32;20207;-62
2023/07/18 05:46:22;;;;;;;1.13;1.03;;;;;;;22.46;59.27;95917.13;4348777;32;20213;-62
2023/07/18 05:48:47;;;;;;;0.93;0.93;;;;;;;22.48;58.90;95916.78;4358335;32;20216;-62
2023/07/18 05:51:12;;;;;;;1.30;1.00;;;;;;;22.56;61.80;95922.00;4341125;32;20182;-62
2023/07/18 05:53:38;;;;;;;1.50;1.40;;;;;;;22.56;61.05;95924.69;4344516;32;20193;-62
2023/07/18 05:56:04;;;;;;;2.20;1.67;;;;;;;22.58;59.76;95918.94;4334241;32;20229;-62
2023/07/18 05:58:29;;;;;;;1.10;1.10;;;;;;;22.63;61.60;95905.91;4339766;32;20244;-62
2023/07/18 06:00:55;;;;;;;1.20;1.13;;;;;;;22.61;55.00;95905.50;4358912;32;20249;-63
2023/07/18 06:03:22;;;;;;;0.93;0.90;;;;;;;22.70;55.48;95904.47;4343331;32;20219;-62
2023/07/18 06:05:53;;;;;;;0.83;0.83;;;;;;;22.73;58.94;95901.84;4336611;32;20268;-62
2023/07/18 06:08:19;;;;;;;1.23;1.13;;;;;;;22.73;59.97;95903.75;4347114;32;20269;-62
2023/07/18 06:10:44;;;;;;;1.80;0.97;;;;;;;22.75;60.48;95896.06;4339137;32;20209;-60
2023/07/18 06:13:10;;;;;;;1.03;1.03;;;;;;;22.78;60.06;95900.81;4346762;32;20196;-59
2023/07/18 06:15:36;;;;;;;1.43;1.23;;;;;;;22.81;57.48;95902.81;4346337;32;20217;-59
2023/07/18 06:18:01;;;;;;;0.70;0.70;;;;;;;22.78;56.96;95898.09;4353968;32;20280;-59
2023/07/18 06:20:26;;;;;;;1.80;0.90;;;;;;;22.80;57.83;95902.03;4340591;32;20199;-59
2023/07/18 06:22:52;;;;;;;13.80;1.93;;;;;;;22.80;57.18;95902.03;4348145;32;20196;-59
2023/07/18 06:25:18;;;;;;;0.70;0.70;;;;;;;22.85;56.32;95900.97;4351692;32;20219;-59
2023/07/18 06:27:43;;;;;;;1.17;1.17;;;;;;;22.89;55.92;95901.78;4360565;32;20207;-59
2023/07/18 06:30:09;;;;;;;1.13;1.10;;;;;;;22.94;57.90;95896.09;4334134;32;20243;-59
2023/07/18 06:32:35;;;;;;;1.13;0.90;;;;;;;22.95;52.37;95897.66;4345410;32;20215;-60
2023/07/18 06:35:02;;;;;;;1.30;1.20;;;;;;;23.01;53.62;95887.31;4340902;32;20193;-60
2023/07/18 06:37:28;;;;;;;0.90;0.90;;;;;;;23.06;54.27;95897.88;4347987;32;20258;-60
2023/07/18 06:39:53;;;;;;;2.37;1.27;;;;;;;23.15;56.27;95890.28;4348580;32;20186;-60
2023/07/18 06:42:18;;;;;;;2.67;1.53;;;;;;;23.02;51.60;95881.56;4348479;32;20254;-60
2023/07/18 06:44:44;;;;;;;1.73;1.63;;;;;;;22.91;49.81;95886.75;4351803;32;20197;-59
2023/07/18 06:47:09;;;;;;;1.53;1.23;;;;;;;22.87;55.02;95879.72;4344893;32;20204;-60
2023/07/18 06:49:34;;;;;;;1.03;1.03;;;;;;;22.76;49.85;95876.00;4344267;32;20253;-59
2023/07/18 06:52:00;;;;;;;1.03;1.03;;;;;;;22.77;51.54;95870.25;4346234;32;20205;-60
2023/07/18 06:54:25;;;;;;;0.70;0.70;;;;;;;22.79;48.99;95872.63;4353820;32;20193;-59
2023/07/18 06:56:51;;;;;;;0.43;0.43;;;;;;;22.78;49.24;95865.62;4352620;32;20201;-59
2023/07/18 06:59:16;;;;;;;0.57;0.57;;;;;;;22.86;50.25;95872.75;4337845;32;20189;-62
2023/07/18 07:01:42;;;;;;;1.73;1.63;;;;;;;22.78;48.18;95877.25;4353097;32;20207;-58
2023/07/18 07:04:08;;;;;;;0.60;0.60;;;;;;;22.86;50.92;95876.22;4347265;32;20251;-61
2023/07/18 07:06:33;;;;;;;1.23;1.17;;;;;;;22.77;50.85;95874.88;4348038;32;20208;-60
2023/07/18 07:08:58;;;;;;;1.53;1.53;;;;;;;22.79;51.33;95867.97;4338090;32;20279;-61
2023/07/18 07:11:27;;;;;;;0.53;0.53;;;;;;;23.00;54.17;95878.41;4350378;32;20219;-61
2023/07/18 07:13:53;;;;;;;0.50;0.50;;;;;;;23.12;54.81;95874.75;4345031;32;20201;-62
2023/07/18 07:16:18;;;;;;;0.73;0.73;;;;;;;23.03;53.03;95875.00;4353066;32;20246;-61
2023/07/18 07:18:43;;;;;;;0.73;0.60;;;;;;;22.95;50.78;95870.59;4344284;32;20248;-61
2023/07/18 07:21:10;;;;;;;0.40;0.40;;;;;;;22.96;49.47;95858.62;4359922;32;20213;-61
2023/07/18 07:23:35;;;;;;;0.83;0.83;;;;;;;23.02;49.65;95859.12;4347374;32;20194;-61
2023/07/18 07:26:01;;;;;;;0.63;0.63;;;;;;;23.17;47.87;95856.28;4345139;32;20294;-61
2023/07/18 07:28:26;;;;;;;1.27;0.93;;;;;;;23.23;48.91;95854.06;4346655;32;20254;-61
2023/07/18 07:30:52;;;;;;;1.20;1.20;;;;;;;23.29;47.86;95852.59;4339448;32;20197;-61
2023/07/18 07:33:18;;;;;;;1.13;0.90;;;;;;;23.28;49.15;95841.00;4348360;32;20215;-61
2023/07/18 07:35:44;;;;;;;2.23;2.03;;;;;;;23.23;46.60;95838.63;4352023;32;20237;-63
2023/07/18 07:38:09;;;;;;;1.00;0.97;;;;;;;23.28;46.64;95838.28;4345730;32;20208;-62
2023/07/18 07:40:35;;;;;;;0.97;0.97;;;;;;;23.36;47.42;95835.69;4345483;32;20212;-62
2023/07/18 07:43:00;;;;;;;0.93;0.93;;;;;;;23.44;46.62;95831.97;4350129;32;20201;-62
2023/07/18 07:45:26;;;;;;;1.20;1.10;;;;;;;23.48;47.32;95828.19;4359375;32;20201;-61
2023/07/18 07:47:51;;;;;;;0.63;0.63;;;;;;;23.63;46.66;95826.50;4349058;32;20205;-62
2023/07/18 07:50:16;;;;;;;0.67;0.67;;;;;;;23.75;46.37;95826.28;4345501;32;20196;-62
2023/07/18 07:52:42;;;;;;;0.70;0.70;;;;;;;23.75;48.96;95828.97;4352278;32;20197;-62
2023/07/18 07:55:11;;;;;;;1.40;1.30;;;;;;;23.81;47.00;95821.34;4358949;32;20201;-62
2023/07/18 07:57:36;;;;;;;0.97;0.97;;;;;;;23.89;47.75;95826.50;4338329;32;20296;-62
2023/07/18 08:00:03;;;;;;;0.60;0.60;;;;;;;23.93;47.30;95830.00;4353004;32;20337;-62
2023/07/18 08:02:28;;;;;;;0.73;0.73;;;;;;;23.91;48.12;95824.16;4348788;32;20306;-62
2023/07/18 08:04:54;;;;;;;2.40;1.67;;;;;;;23.84;49.37;95826.03;4357860;32;20205;-62
2023/07/18 08:07:19;;;;;;;1.13;1.03;;;;;;;23.85;48.40;95814.81;4340908;32;20236;-62
2023/07/18 08:09:45;;;;;;;3.70;1.50;;;;;;;23.91;49.64;95816.03;4341299;32;20193;-62
2023/07/18 08:12:12;;;;;;;1.13;1.13;;;;;;;23.93;50.96;95816.47;4348987;32;20181;-62
2023/07/18 08:14:38;;;;;;;1.60;0.80;;;;;;;24.05;51.09;95809.25;4339521;32;20251;-63
2023/07/18 08:17:03;;;;;;;0.50;0.50;;;;;;;24.02;47.73;95801.87;4339513;32;20212;-62
2023/07/18 08:19:29;;;;;;;0.47;0.47;;;;;;;24.00;47.99;95807.66;4327901;32;20224;-62
2023/07/18 08:21:54;;;;;;;0.60;0.60;;;;;;;24.02;49.38;95799.94;4347204;32;20209;-62
2023/07/18 08:24:20;;;;;;;1.23;1.13;;;;;;;24.13;49.55;95797.34;4354803;32;20267;-62
2023/07/18 08:26:45;;;;;;;0.20;0.20;;;;;;;24.06;49.46;95783.72;4345019;32;20219;-62
2023/07/18 08:29:11;;;;;;;0.40;0.40;;;;;;;24.15;48.67;95784.19;4344946;32;20215;-62
2023/07/18 08:31:36;;;;;;;1.20;1.13;;;;;;;24.24;48.66;95788.22;4337359;32;20220;-62
2023/07/18 08:34:01;;;;;;;0.70;0.70;;;;;;;24.25;48.58;95787.09;4346785;32;20330;-61
2023/07/18 08:36:29;;;;;;;0.93;0.93;;;;;;;24.29;50.19;95781.72;4344730;32;20379;-62
2023/07/18 08:38:54;;;;;;;0.70;0.70;;;;;;;24.27;50.58;95784.00;4340191;32;20178;-63
2023/07/18 08:41:20;;;;;;;0.80;0.80;;;;;;;24.26;51.75;95775.09;4351073;32;20287;-63
2023/07/18 08:43:50;;;;;;;0.80;0.80;;;;;;;24.27;50.13;95776.66;4344406;32;20208;-63
2023/07/18 08:46:16;;;;;;;0.67;0.67;;;;;;;24.28;49.88;95772.78;4341020;32;20197;-63
2023/07/18 08:48:45;;;;;;;0.70;0.70;;;;;;;24.36;48.56;95762.00;4349387;32;20232;-62
2023/07/18 08:51:12;;;;;;;0.73;0.73;;;;;;;24.30;49.18;95758.84;4347628;32;20208;-62
2023/07/18 08:53:38;;;;;;;1.10;1.10;;;;;;;24.19;49.90;95755.19;4354537;32;20201;-63
2023/07/18 08:56:04;;;;;;;1.67;1.57;;;;;;;24.35;47.91;95755.78;4343662;32;20196;-63
2023/07/18 08:58:29;;;;;;;1.27;1.17;;;;;;;24.26;49.87;95752.59;4338846;32;20220;-63
2023/07/18 09:00:54;;;;;;;0.60;0.60;;;;;;;24.31;49.66;95752.28;4341753;32;20197;-61
2023/07/18 09:03:20;;;;;;;1.03;0.77;;;;;;;24.41;49.47;95753.53;4350602;32;20240;-60
2023/07/18 09:05:45;;;;;;;0.90;0.90;;;;;;;24.49;52.38;95744.34;4345199;32;20212;-61
2023/07/18 09:08:11;;;;;;;1.13;1.13;;;;;;;24.43;51.62;95733.03;4336071;32;20228;-62
2023/07/18 09:10:36;;;;;;;1.20;1.20;;;;;;;24.43;52.04;95734.97;4335682;32;20189;-61
2023/07/18 09:13:10;;;;;;;0.93;0.93;;;;;;;24.48;51.73;95731.91;4340436;32;20320;-61
2023/07/18 09:15:37;;;;;;;2.00;1.67;;;;;;;24.66;49.47;95725.50;4344253;32;20216;-61
2023/07/18 09:18:04;;;;;;;1.87;0.97;;;;;;;24.62;49.73;95721.97;4340627;32;20276;-62
2023/07/18 09:20:30;;;;;;;0.87;0.87;;;;;;;24.76;50.88;95724.03;4336720;32;20284;-62
2023/07/18 09:22:57;;;;;;;0.83;0.83;;;;;;;24.57;51.35;95716.87;4337282;32;20193;-61
2023/07/18 09:25:24;;;;;;;1.03;1.03;;;;;;;24.61;51.40;95720.41;4337189;32;20201;-61
2023/07/18 09:27:51;;;;;;;6.60;5.97;;;;;;;24.67;52.29;95713.50;4353293;32;20249;-62
2023/07/18 09:30:34;;;;;;;2.10;2.00;;;;;;;24.96;49.89;95708.31;4344487;32;20256;-61
2023/07/18 09:33:02;;;;;;;0.60;0.60;;;;;;;25.06;50.14;95706.84;4346607;32;20204;-62
2023/07/18 09:35:27;;;;;;;3.93;3.63;;;;;;;24.99;50.50;95713.00;4353304;32;20207;-63
2023/07/18 09:37:53;;;;;;;2.43;2.23;;;;;;;24.97;50.75;95710.66;4344322;32;20201;-62
2023/07/18 09:40:19;;;;;;;1.67;1.57;;;;;;;25.03;51.20;95711.09;4342858;32;20206;-63
2023/07/18 09:42:46;;;;;;;3.27;2.97;;;;;;;25.00;51.15;95709.91;4353794;32;20193;-62
2023/07/18 09:45:16;;;;;;;4.50;3.67;;;;;;;25.21;50.49;95709.28;4337938;32;20209;-62
2023/07/18 09:47:42;;;;;;;2.97;2.77;;;;;;;25.04;51.58;95701.81;4353420;32;20234;-62
2023/07/18 09:50:12;;;;;;;1.67;1.67;;;;;;;25.03;51.95;95700.25;4350563;32;20193;-62
2023/07/18 09:52:49;;;;;;;1.70;1.60;;;;;;;24.97;52.68;95701.72;4331909;32;20185;-62
2023/07/18 09:55:21;;;;;;;2.27;2.00;;;;;;;25.05;53.62;95697.16;4349340;32;20189;-61
2023/07/18 09:57:47;;;;;;;1.00;1.00;;;;;;;25.05;53.30;95699.88;4352342;32;20188;-62
2023/07/18 10:00:15;;;;;;;1.23;1.13;;;;;;;25.11;52.87;95699.16;4357951;32;20231;-62
2023/07/18 10:02:41;;;;;;;0.87;0.87;;;;;;;25.36;50.79;95693.09;4343706;32;20245;-62
2023/07/18 10:05:09;;;;;;;1.00;1.00;;;;;;;25.24;51.46;95689.53;4343511;32;20197;-62
2023/07/18 10:07:36;;;;;;;1.70;1.60;;;;;;;25.37;50.95;95689.19;4346155;32;20189;-62
2023/07/18 10:10:02;;;;;;;0.70;0.70;;;;;;;25.34;52.01;95688.81;4352837;32;20251;-62
2023/07/18 10:12:28;;;;;;;1.20;1.10;;;;;;;25.47;52.68;95688.50;4345735;32;20186;-62
2023/07/18 10:14:59;;;;;;;1.50;1.33;;;;;;;25.40;52.27;95681.06;4354481;32;20244;-62
2023/07/18 10:17:31;;;;;;;1.77;1.67;;;;;;;25.43;51.47;95672.16;4335494;32;20211;-62
2023/07/18 10:19:56;;;;;;;0.83;0.83;;;;;;;25.36;52.18;95676.78;4346587;32;20201;-62
2023/07/18 10:22:26;;;;;;;1.07;0.73;;;;;;;25.38;53.45;95679.87;4347585;32;20243;-62
2023/07/18 10:24:51;;;;;;;1.00;1.00;;;;;;;25.38;52.93;95679.87;4352728;32;20189;-63
2023/07/18 10:27:17;;;;;;;1.87;1.53;;;;;;;25.56;51.33;95676.12;4342922;32;20256;-62
2023/07/18 10:30:03;;;;;;;1.20;1.20;;;;;;;25.50;51.78;95676.88;4354064;32;20225;-62
2023/07/18 10:32:31;;;;;;;2.93;1.87;;;;;;;25.65;50.93;95675.78;4359519;32;20189;-62
2023/07/18 10:34:57;;;;;;;2.33;2.23;;;;;;;25.52;51.88;95671.84;4350089;32;20197;-62
2023/07/18 10:37:26;;;;;;;1.30;1.27;;;;;;;25.64;51.67;95672.31;4352468;32;20199;-62
2023/07/18 10:39:53;;;;;;;4.43;2.37;;;;;;;25.50;52.14;95666.78;4349582;32;20200;-62
2023/07/18 10:42:24;;;;;;;3.67;3.47;;;;;;;25.66;51.92;95663.78;4348961;32;20189;-61
2023/07/18 10:44:58;;;;;;;2.87;2.77;;;;;;;25.53;51.90;95665.25;4346469;32;20243;-62
2023/07/18 10:47:23;;;;;;;2.37;1.57;;;;;;;25.57;52.10;95671.44;4345014;32;20193;-62
2023/07/18 10:49:49;;;;;;;1.20;1.20;;;;;;;25.56;51.31;95661.75;4352970;32;20203;-62
2023/07/18 10:52:16;;;;;;;1.17;0.93;;;;;;;25.64;51.08;95658.72;4352376;32;20197;-62
2023/07/18 10:54:53;;;;;;;0.83;0.83;;;;;;;25.61;51.05;95664.09;4339312;32;20193;-61
2023/07/18 10:57:29;;;;;;;1.40;1.27;;;;;;;25.47;52.09;95655.87;4342644;32;20184;-62
2023/07/18 10:59:55;;;;;;;1.33;1.23;;;;;;;25.45;52.48;95655.47;4341552;32;20216;-63
2023/07/18 11:02:21;;;;;;;0.83;0.83;;;;;;;25.64;50.20;95656.00;4349934;32;20236;-63
2023/07/18 11:04:47;;;;;;;1.40;1.23;;;;;;;25.73;50.34;95647.50;4347938;32;20261;-64
2023/07/18 11:07:13;;;;;;;1.83;1.73;;;;;;;25.79;50.51;95648.66;4350872;32;20184;-63
2023/07/18 11:09:40;;;;;;;1.37;1.37;;;;;;;25.86;50.05;95648.69;4359784;32;20184;-63
2023/07/18 11:12:07;;;;;;;1.00;1.00;;;;;;;25.89;49.63;95644.44;4355128;32;20220;-63
2023/07/18 11:14:40;;;;;;;2.07;1.97;;;;;;;26.00;49.05;95639.78;4345196;32;20185;-63
2023/07/18 11:17:13;;;;;;;1.90;1.30;;;;;;;26.09;49.45;95642.16;4341582;32;20260;-62
2023/07/18 11:19:39;;;;;;;1.43;1.43;;;;;;;25.85;51.63;95649.84;4350449;32;20203;-62
2023/07/18 11:22:06;;;;;;;0.90;0.90;;;;;;;25.57;52.41;95660.56;4342812;32;20213;-64
2023/07/18 11:24:32;;;;;;;1.67;1.20;;;;;;;25.51;53.23;95662.13;4344392;32;20208;-63
2023/07/18 11:27:14;;;;;;;5.30;1.30;;;;;;;25.38;53.06;95669.03;4353802;32;20223;-63
2023/07/18 11:29:40;;;;;;;1.33;1.23;;;;;;;25.47;52.73;95672.97;4357675;32;20211;-63